Time;durP1;ratioP1;P1;durP2;ratioP2;P2;SDS_P1;SDS_P2;PMS_P1;PMS_P2;Temp;Humidity;BMP_temperature;BMP_pressure;BME280_temperature;BME280_humidity;BME280_pressure;Samples;Min_cycle;Max_cycle;Signal;HPM_P1;HPM_P2
2023/02/05 00:00:44;;;;;;;38.57;16.80;;;9.30;99.90;;;;;;5093565;28;20440;-57
2023/02/05 00:03:11;;;;;;;24.83;12.87;;;9.30;99.90;;;;;;5093510;28;20451;-57
2023/02/05 00:05:37;;;;;;;31.67;13.83;;;9.30;99.90;;;;;;5093421;28;20479;-56
2023/02/05 00:08:04;;;;;;;26.63;11.20;;;9.30;99.90;;;;;;5093384;28;20447;-57
2023/02/05 00:10:31;;;;;;;20.17;10.13;;;9.30;99.90;;;;;;5093398;28;20952;-57
2023/02/05 00:13:00;;;;;;;14.60;10.00;;;9.30;99.90;;;;;;5093862;28;20439;-58
2023/02/05 00:15:26;;;;;;;25.90;10.30;;;9.30;99.90;;;;;;5092093;28;20447;-58
2023/02/05 00:17:53;;;;;;;27.60;10.90;;;9.30;99.90;;;;;;5093426;28;20439;-58
2023/02/05 00:20:20;;;;;;;21.13;10.30;;;9.30;99.90;;;;;;5093225;28;20930;-57
2023/02/05 00:22:47;;;;;;;21.20;10.50;;;9.20;99.90;;;;;;5093002;28;20448;-57
2023/02/05 00:25:14;;;;;;;25.60;11.10;;;9.20;99.90;;;;;;5094896;28;20479;-57
2023/02/05 00:27:40;;;;;;;27.37;12.10;;;9.20;99.90;;;;;;5096910;28;20454;-57
2023/02/05 00:30:10;;;;;;;26.27;11.90;;;9.30;99.90;;;;;;5096471;28;20996;-57
2023/02/05 00:32:37;;;;;;;21.63;13.57;;;9.30;99.90;;;;;;5096837;28;20900;-57
2023/02/05 00:35:04;;;;;;;18.17;10.80;;;9.30;99.90;;;;;;5096786;28;20467;-56
2023/02/05 00:37:30;;;;;;;24.13;15.10;;;9.30;99.90;;;;;;5096691;28;20435;-56
2023/02/05 00:39:57;;;;;;;24.67;12.93;;;9.30;99.90;;;;;;5096734;28;20440;-57
2023/02/05 00:42:24;;;;;;;32.00;16.70;;;9.30;99.90;;;;;;5096554;28;20455;-56
2023/02/05 00:44:50;;;;;;;21.63;14.03;;;9.40;99.90;;;;;;5096526;28;20475;-56
2023/02/05 00:47:18;;;;;;;24.00;13.40;;;9.30;99.90;;;;;;5096743;28;20436;-57
2023/02/05 00:49:45;;;;;;;24.00;12.13;;;9.30;99.90;;;;;;5096492;28;20481;-57
2023/02/05 00:52:12;;;;;;;27.20;16.07;;;9.30;99.90;;;;;;5096330;28;20455;-57
2023/02/05 00:54:38;;;;;;;30.47;14.73;;;9.30;99.90;;;;;;5096008;28;21007;-59
2023/02/05 00:57:05;;;;;;;28.03;13.97;;;9.30;99.90;;;;;;5096359;28;20438;-57
2023/02/05 00:59:32;;;;;;;20.67;12.20;;;9.30;99.90;;;;;;5096238;28;20831;-58
2023/02/05 01:01:58;;;;;;;28.80;14.43;;;9.30;99.90;;;;;;5096044;28;20444;-58
2023/02/05 01:04:27;;;;;;;24.37;14.37;;;9.30;99.90;;;;;;5096396;28;20471;-58
2023/02/05 01:06:54;;;;;;;25.00;15.13;;;9.30;99.90;;;;;;5095764;28;20995;-58
2023/02/05 01:09:21;;;;;;;31.23;15.90;;;9.30;99.90;;;;;;5095765;28;20456;-58
2023/02/05 01:11:48;;;;;;;36.83;20.17;;;9.30;99.90;;;;;;5095937;28;20467;-58
2023/02/05 01:14:15;;;;;;;26.57;13.43;;;9.30;99.90;;;;;;5095780;28;20471;-58
2023/02/05 01:16:42;;;;;;;25.80;13.70;;;9.20;99.90;;;;;;5095842;28;20448;-58
2023/02/05 01:19:08;;;;;;;26.73;12.83;;;9.20;99.90;;;;;;5095872;28;20454;-58
2023/02/05 01:21:36;;;;;;;37.67;13.87;;;9.20;99.90;;;;;;5095796;28;20471;-58
2023/02/05 01:24:04;;;;;;;31.67;16.43;;;9.30;99.90;;;;;;5095724;28;20489;-58
2023/02/05 01:26:31;;;;;;;50.17;20.03;;;9.20;99.90;;;;;;5095692;28;20519;-58
2023/02/05 01:28:58;;;;;;;34.53;13.37;;;9.20;99.90;;;;;;5095824;28;20474;-58
2023/02/05 01:31:26;;;;;;;26.40;12.27;;;9.20;99.90;;;;;;5095498;28;20455;-59
2023/02/05 01:33:53;;;;;;;32.73;13.63;;;9.10;99.90;;;;;;5095508;28;20471;-58
2023/02/05 01:36:20;;;;;;;29.73;11.90;;;9.10;99.90;;;;;;5095163;28;20436;-58
2023/02/05 01:38:48;;;;;;;28.73;13.30;;;9.00;99.90;;;;;;5095058;28;20967;-58
2023/02/05 01:41:15;;;;;;;35.10;16.13;;;9.00;99.90;;;;;;5095412;28;20452;-58
2023/02/05 01:43:41;;;;;;;30.20;15.17;;;8.90;99.90;;;;;;5095224;28;20475;-58
2023/02/05 01:46:20;;;;;;;41.00;17.17;;;8.80;99.90;;;;;;5095282;28;20840;-58
2023/02/05 01:48:50;;;;;;;35.20;17.10;;;8.70;99.90;;;;;;5095369;28;20439;-58
2023/02/05 01:51:17;;;;;;;37.20;16.80;;;8.60;99.90;;;;;;5095543;28;20431;-58
2023/02/05 01:53:48;;;;;;;36.93;15.57;;;8.60;99.90;;;;;;5095085;28;20479;-58
2023/02/05 01:56:19;;;;;;;41.40;16.73;;;8.70;99.90;;;;;;5095170;28;20431;-58
2023/02/05 01:58:51;;;;;;;40.90;15.93;;;8.70;99.90;;;;;;5095040;28;20445;-58
2023/02/05 02:01:18;;;;;;;46.60;15.90;;;8.70;99.90;;;;;;5095028;28;20856;-58
2023/02/05 02:03:46;;;;;;;43.50;16.93;;;8.70;99.90;;;;;;5094889;28;20475;-58
2023/02/05 02:06:12;;;;;;;31.63;14.93;;;8.70;99.90;;;;;;5095199;28;20483;-58
2023/02/05 02:08:39;;;;;;;29.33;14.37;;;8.80;99.90;;;;;;5094533;28;20967;-58
2023/02/05 02:11:10;;;;;;;31.17;15.30;;;8.80;99.90;;;;;;5094598;28;20833;-58
2023/02/05 02:13:39;;;;;;;35.77;16.33;;;8.80;99.90;;;;;;5097417;28;20535;-58
2023/02/05 02:16:07;;;;;;;38.57;14.93;;;8.80;99.90;;;;;;5115779;28;20434;-58
2023/02/05 02:18:36;;;;;;;38.63;16.70;;;8.80;99.90;;;;;;5115031;28;20454;-58
2023/02/05 02:21:48;;;;;;;31.63;15.90;;;8.80;99.90;;;;;;5115066;28;20446;-58
2023/02/05 02:24:40;;;;;;;32.53;16.50;;;8.80;99.90;;;;;;5103517;27;20501;-58
2023/02/05 02:27:35;;;;;;;29.80;15.90;;;8.80;99.90;;;;;;5114572;28;20470;-58
2023/02/05 02:30:12;;;;;;;41.80;18.73;;;8.80;99.90;;;;;;5114826;28;20439;-58
2023/02/05 02:32:43;;;;;;;36.07;19.73;;;8.80;99.90;;;;;;5114852;28;20439;-58
2023/02/05 02:35:14;;;;;;;40.53;18.00;;;8.70;99.90;;;;;;5114770;28;20466;-58
2023/02/05 02:37:49;;;;;;;35.80;18.80;;;8.70;99.90;;;;;;5114743;28;20444;-58
2023/02/05 02:40:20;;;;;;;42.90;19.33;;;8.70;99.90;;;;;;5114700;28;20437;-58
2023/02/05 02:42:51;;;;;;;38.13;19.07;;;8.70;99.90;;;;;;5114666;28;20439;-57
2023/02/05 02:45:23;;;;;;;43.20;21.50;;;8.70;99.90;;;;;;5114373;28;20462;-58
2023/02/05 02:47:55;;;;;;;33.83;20.23;;;8.80;99.90;;;;;;5113934;28;20451;-57
2023/02/05 02:50:31;;;;;;;43.97;21.70;;;8.80;99.90;;;;;;5114857;28;20464;-58
2023/02/05 02:53:02;;;;;;;50.40;22.40;;;8.90;99.90;;;;;;5114337;28;20438;-59
2023/02/05 02:55:31;;;;;;;45.83;22.80;;;8.80;99.90;;;;;;5114515;28;20459;-58
2023/02/05 02:57:59;;;;;;;48.60;23.33;;;8.90;99.90;;;;;;5114418;28;20466;-58
2023/02/05 03:00:29;;;;;;;44.97;22.50;;;8.90;99.90;;;;;;5114297;28;20447;-58
2023/02/05 03:03:01;;;;;;;47.20;24.53;;;8.90;99.90;;;;;;5114316;28;20459;-58
2023/02/05 03:05:29;;;;;;;49.07;24.47;;;8.90;99.90;;;;;;5114245;28;20431;-58
2023/02/05 03:08:00;;;;;;;52.60;23.37;;;8.90;99.90;;;;;;5114209;28;20446;-58
2023/02/05 03:10:35;;;;;;;45.47;23.60;;;8.90;99.90;;;;;;5113871;28;20458;-58
2023/02/05 03:13:02;;;;;;;45.80;24.87;;;8.80;99.90;;;;;;5114198;28;20437;-58
2023/02/05 03:15:31;;;;;;;45.60;22.27;;;8.80;99.90;;;;;;5114208;28;20790;-58
2023/02/05 03:17:58;;;;;;;49.60;24.17;;;8.90;99.90;;;;;;5114407;28;20438;-58
2023/02/05 03:20:27;;;;;;;51.53;24.20;;;8.90;99.90;;;;;;5114068;28;20788;-58
2023/02/05 03:22:55;;;;;;;45.33;24.37;;;8.90;99.90;;;;;;5113945;28;20458;-58
2023/02/05 03:25:22;;;;;;;47.40;26.40;;;8.90;99.90;;;;;;5113992;28;20450;-58
2023/02/05 03:27:52;;;;;;;50.83;26.10;;;8.90;99.90;;;;;;5113835;28;20487;-58
2023/02/05 03:30:20;;;;;;;53.43;27.00;;;8.80;99.90;;;;;;5113869;28;20466;-58
2023/02/05 03:33:00;;;;;;;57.67;26.20;;;8.80;99.90;;;;;;5113975;28;20447;-58
2023/02/05 03:35:36;;;;;;;48.57;25.70;;;8.90;99.90;;;;;;5113876;28;20427;-58
2023/02/05 03:38:18;;;;;;;55.77;27.07;;;8.90;99.90;;;;;;5113872;28;20434;-58
2023/02/05 03:40:50;;;;;;;50.37;28.30;;;8.90;99.90;;;;;;5113854;28;20431;-58
2023/02/05 03:43:30;;;;;;;54.20;25.57;;;8.90;99.90;;;;;;5113665;28;20465;-58
2023/02/05 03:46:02;;;;;;;52.03;26.67;;;8.90;99.90;;;;;;5113859;28;20504;-58
2023/02/05 03:48:43;;;;;;;52.60;26.10;;;8.90;99.90;;;;;;5113784;28;20500;-58
2023/02/05 03:51:22;;;;;;;47.47;27.03;;;8.90;99.90;;;;;;5113484;28;20547;-58
2023/02/05 03:54:00;;;;;;;50.67;26.67;;;9.00;99.90;;;;;;5113935;28;20562;-58
2023/02/05 03:56:33;;;;;;;52.00;27.03;;;9.00;99.90;;;;;;5114628;28;20820;-58
2023/02/05 03:59:01;;;;;;;53.57;26.90;;;9.10;99.90;;;;;;5113467;28;20894;-58
2023/02/05 04:01:28;;;;;;;51.50;26.67;;;9.10;99.90;;;;;;5117767;28;20454;-58
2023/02/05 04:03:56;;;;;;;57.03;29.40;;;9.10;99.90;;;;;;5117809;28;20474;-58
2023/02/05 04:06:23;;;;;;;53.10;28.07;;;9.00;99.90;;;;;;5117725;28;20548;-58
2023/02/05 04:08:50;;;;;;;61.00;29.70;;;9.00;99.90;;;;;;5117227;28;20976;-59
2023/02/05 04:11:16;;;;;;;59.67;30.50;;;9.00;99.90;;;;;;5118362;28;20445;-58
2023/02/05 04:13:43;;;;;;;58.97;31.80;;;9.00;99.90;;;;;;5117919;28;20467;-58
2023/02/05 04:16:10;;;;;;;65.70;33.73;;;8.90;99.90;;;;;;5117717;28;20483;-58
2023/02/05 04:18:37;;;;;;;78.90;34.27;;;8.80;99.90;;;;;;5117902;28;20453;-58
2023/02/05 04:21:05;;;;;;;75.90;35.97;;;8.80;99.90;;;;;;5118611;28;20443;-58
2023/02/05 04:23:32;;;;;;;77.77;36.70;;;8.70;99.90;;;;;;5117751;28;20527;-57
2023/02/05 04:25:59;;;;;;;77.57;35.43;;;8.70;99.90;;;;;;5118151;28;20458;-57
2023/02/05 04:28:26;;;;;;;71.23;33.90;;;8.60;99.90;;;;;;5118022;28;20449;-57
2023/02/05 04:30:52;;;;;;;76.93;35.87;;;8.60;99.90;;;;;;5118903;28;20431;-56
2023/02/05 04:33:19;;;;;;;67.67;32.57;;;8.60;99.90;;;;;;5118758;28;20515;-58
2023/02/05 04:35:46;;;;;;;65.30;32.60;;;8.50;99.90;;;;;;5118769;28;20454;-57
2023/02/05 04:38:14;;;;;;;73.80;34.67;;;8.60;99.90;;;;;;5117029;28;20454;-57
2023/02/05 04:40:40;;;;;;;65.80;32.87;;;8.60;99.90;;;;;;5117259;28;20458;-58
2023/02/05 04:43:07;;;;;;;60.53;29.40;;;8.60;99.90;;;;;;5117205;28;20454;-59
2023/02/05 04:45:35;;;;;;;62.03;30.93;;;8.60;99.90;;;;;;5119132;28;20454;-58
2023/02/05 04:48:02;;;;;;;65.17;31.10;;;8.50;99.90;;;;;;5118135;28;20491;-57
2023/02/05 04:50:29;;;;;;;56.00;30.07;;;8.50;99.90;;;;;;5116927;28;20805;-58
2023/02/05 04:52:55;;;;;;;52.63;29.03;;;8.50;99.90;;;;;;5116941;28;20450;-58
2023/02/05 04:55:24;;;;;;;50.23;26.87;;;8.60;99.90;;;;;;5116762;28;20438;-58
2023/02/05 04:57:50;;;;;;;43.63;25.83;;;8.60;99.90;;;;;;5116698;27;20466;-57
2023/02/05 05:00:18;;;;;;;43.70;25.87;;;8.60;99.90;;;;;;5116591;28;20503;-57
2023/02/05 05:02:44;;;;;;;52.60;27.30;;;8.60;99.90;;;;;;5116481;28;20454;-58
2023/02/05 05:05:11;;;;;;;51.77;28.53;;;8.60;99.90;;;;;;5116568;28;20536;-57
2023/02/05 05:07:38;;;;;;;56.43;28.73;;;8.70;99.90;;;;;;5116094;28;20994;-57
2023/02/05 05:10:06;;;;;;;52.20;26.83;;;8.70;99.90;;;;;;5114860;28;20833;-57
2023/02/05 05:12:36;;;;;;;49.13;27.60;;;8.70;99.90;;;;;;5115318;28;20499;-58
2023/02/05 05:15:05;;;;;;;53.50;29.60;;;8.70;99.90;;;;;;5100457;28;20490;-58
2023/02/05 05:17:32;;;;;;;60.13;30.70;;;8.70;99.90;;;;;;5095537;28;20808;-58
2023/02/05 05:19:59;;;;;;;60.03;30.20;;;8.70;99.90;;;;;;5095850;28;20443;-58
2023/02/05 05:22:26;;;;;;;53.80;30.23;;;8.70;99.90;;;;;;5095854;28;20437;-58
2023/02/05 05:24:53;;;;;;;57.67;33.43;;;8.70;99.90;;;;;;5095643;28;20474;-58
2023/02/05 05:27:21;;;;;;;67.10;32.30;;;8.70;99.90;;;;;;5095337;28;20999;-58
2023/02/05 05:29:49;;;;;;;60.30;32.70;;;8.70;99.90;;;;;;5094564;28;20443;-58
2023/02/05 05:32:16;;;;;;;58.07;33.30;;;8.70;99.90;;;;;;5095577;28;20451;-58
2023/02/05 05:34:43;;;;;;;67.73;34.27;;;8.70;99.90;;;;;;5095459;28;20478;-57
2023/02/05 05:37:09;;;;;;;64.90;34.13;;;8.70;99.90;;;;;;5095550;28;20432;-58
2023/02/05 05:45:07;;;;;;;59.30;34.37;;;8.60;99.90;;;;;;5094993;28;20442;-58
2023/02/05 05:47:34;;;;;;;67.60;35.50;;;8.60;99.90;;;;;;5095266;28;20480;-58
2023/02/05 05:50:01;;;;;;;65.00;33.47;;;8.60;99.90;;;;;;5095268;28;20474;-58
2023/02/05 05:52:27;;;;;;;62.43;34.10;;;8.50;99.90;;;;;;5095325;28;20451;-57
2023/02/05 05:54:54;;;;;;;53.87;31.90;;;8.60;99.90;;;;;;5095181;28;20464;-57
2023/02/05 05:57:21;;;;;;;61.27;33.50;;;8.60;99.90;;;;;;5095148;28;20457;-57
2023/02/05 05:59:47;;;;;;;57.33;32.20;;;8.50;99.90;;;;;;5094945;28;20522;-57
2023/02/05 06:02:15;;;;;;;62.53;34.43;;;8.50;99.90;;;;;;5095041;28;20456;-57
2023/02/05 06:04:42;;;;;;;52.73;29.30;;;8.40;99.90;;;;;;5094957;28;20475;-58
2023/02/05 06:07:09;;;;;;;59.87;30.67;;;8.40;99.90;;;;;;5095719;28;20499;-57
2023/02/05 06:09:35;;;;;;;48.07;28.73;;;8.30;99.90;;;;;;5094716;28;20472;-57
2023/02/05 06:12:02;;;;;;;53.43;30.50;;;8.30;99.90;;;;;;5094842;28;20448;-58
2023/02/05 06:14:29;;;;;;;48.80;27.50;;;8.30;99.90;;;;;;5094741;28;20463;-58
2023/02/05 06:16:55;;;;;;;48.80;28.23;;;8.20;99.90;;;;;;5094906;28;20439;-58
2023/02/05 06:19:23;;;;;;;53.30;29.57;;;8.20;99.90;;;;;;5094392;28;20943;-58
2023/02/05 06:21:50;;;;;;;46.07;28.50;;;8.20;99.90;;;;;;5094554;28;20452;-57
2023/02/05 06:24:17;;;;;;;46.60;25.03;;;8.20;99.90;;;;;;5094348;28;20468;-58
2023/02/05 06:26:44;;;;;;;46.53;27.10;;;8.20;99.90;;;;;;5094550;28;20521;-58
2023/02/05 06:29:10;;;;;;;45.17;25.43;;;8.20;99.90;;;;;;5095342;28;20452;-58
2023/02/05 06:31:37;;;;;;;45.33;25.60;;;8.20;99.90;;;;;;5094405;28;20481;-58
2023/02/05 06:34:04;;;;;;;47.40;26.60;;;8.20;99.90;;;;;;5094033;28;20987;-58
2023/02/05 06:36:32;;;;;;;45.00;25.20;;;8.20;99.90;;;;;;5094475;28;20797;-58
2023/02/05 06:38:59;;;;;;;48.60;27.43;;;8.10;99.90;;;;;;5094393;28;20458;-58
2023/02/05 06:41:25;;;;;;;46.10;25.17;;;8.10;99.90;;;;;;5094228;28;20443;-57
2023/02/05 06:43:52;;;;;;;41.27;24.03;;;8.10;99.90;;;;;;5094220;28;20463;-57
2023/02/05 06:46:19;;;;;;;43.67;25.20;;;8.10;99.90;;;;;;5094246;28;20447;-58
2023/02/05 06:48:45;;;;;;;45.60;26.40;;;8.10;99.90;;;;;;5094180;28;20468;-57
2023/02/05 06:51:13;;;;;;;40.67;23.90;;;8.20;99.90;;;;;;5094146;28;20501;-57
2023/02/05 06:53:42;;;;;;;41.87;24.00;;;8.10;99.90;;;;;;5093620;28;21049;-57
2023/02/05 06:56:09;;;;;;;44.33;23.70;;;8.10;99.90;;;;;;5094086;28;20451;-57
2023/02/05 06:58:35;;;;;;;42.97;25.50;;;8.10;99.90;;;;;;5093619;28;20944;-57
2023/02/05 07:01:02;;;;;;;39.80;24.20;;;8.10;99.90;;;;;;5093953;28;20455;-57
2023/02/05 07:03:29;;;;;;;42.10;24.37;;;8.10;99.90;;;;;;5093807;28;20463;-58
2023/02/05 07:06:01;;;;;;;42.10;24.17;;;8.10;99.90;;;;;;5093629;28;20513;-57
2023/02/05 07:08:27;;;;;;;41.30;22.97;;;8.10;99.90;;;;;;5093614;28;20491;-58
2023/02/05 07:10:55;;;;;;;40.00;25.10;;;8.10;99.90;;;;;;5093945;28;20432;-57
2023/02/05 07:13:22;;;;;;;41.60;26.20;;;8.10;99.90;;;;;;5093795;28;20472;-57
2023/02/05 07:15:49;;;;;;;40.37;23.50;;;8.10;99.90;;;;;;5093518;28;20916;-56
2023/02/05 07:18:16;;;;;;;41.20;25.33;;;8.00;99.90;;;;;;5093441;28;20964;-56
2023/02/05 07:20:43;;;;;;;41.60;25.63;;;8.00;99.90;;;;;;5093729;28;20435;-57
2023/02/05 07:23:09;;;;;;;39.80;25.23;;;8.00;99.90;;;;;;5093262;28;20447;-57
2023/02/05 07:25:36;;;;;;;43.53;26.87;;;8.00;99.90;;;;;;5093449;28;20463;-56
2023/02/05 07:28:05;;;;;;;50.87;26.40;;;8.10;99.90;;;;;;5093445;28;20507;-56
2023/02/05 07:30:32;;;;;;;39.87;25.80;;;8.10;99.90;;;;;;5093536;28;20526;-56
2023/02/05 07:33:02;;;;;;;42.67;27.33;;;8.00;99.90;;;;;;5093401;28;20474;-57
2023/02/05 07:35:29;;;;;;;40.17;26.30;;;8.00;99.90;;;;;;5092929;28;20447;-56
2023/02/05 07:37:56;;;;;;;38.80;26.30;;;8.00;99.90;;;;;;5093525;28;20448;-57
2023/02/05 07:40:22;;;;;;;44.43;27.57;;;8.00;99.90;;;;;;5093516;28;20432;-58
2023/02/05 07:42:49;;;;;;;42.40;26.77;;;8.00;99.90;;;;;;5093589;28;20424;-57
2023/02/05 07:45:17;;;;;;;44.03;28.30;;;8.00;99.90;;;;;;5093400;28;20460;-57
2023/02/05 07:47:44;;;;;;;38.40;24.67;;;8.00;99.90;;;;;;5093385;28;20502;-56
2023/02/05 07:50:11;;;;;;;41.03;28.30;;;8.10;99.90;;;;;;5093087;28;20951;-56
2023/02/05 07:52:38;;;;;;;42.97;24.97;;;8.10;99.90;;;;;;5093302;28;20448;-56
2023/02/05 07:55:05;;;;;;;39.80;26.43;;;8.00;99.90;;;;;;5093047;28;20983;-56
2023/02/05 07:57:31;;;;;;;41.27;26.17;;;8.00;99.90;;;;;;5093475;28;20440;-56
2023/02/05 07:59:58;;;;;;;37.63;25.53;;;8.10;99.90;;;;;;5093311;28;20498;-56
2023/02/05 08:02:26;;;;;;;41.10;24.93;;;8.10;99.90;;;;;;5093221;28;20448;-57
2023/02/05 08:04:53;;;;;;;32.77;23.77;;;8.10;99.90;;;;;;5093066;28;20834;-56
2023/02/05 08:07:20;;;;;;;36.63;25.93;;;8.00;99.90;;;;;;5093531;28;20494;-56
2023/02/05 08:09:46;;;;;;;42.23;25.57;;;8.10;99.90;;;;;;5092954;28;20456;-57
2023/02/05 08:12:13;;;;;;;33.10;24.63;;;8.10;99.90;;;;;;5093620;28;20451;-57
2023/02/05 08:14:40;;;;;;;33.27;23.43;;;8.00;99.90;;;;;;5092996;28;20491;-57
2023/02/05 08:17:06;;;;;;;29.97;22.63;;;8.10;99.90;;;;;;5093208;28;20432;-57
2023/02/05 08:19:35;;;;;;;29.17;22.13;;;8.00;99.90;;;;;;5091974;28;20565;-57
2023/02/05 08:22:01;;;;;;;28.70;18.80;;;8.00;99.90;;;;;;5093028;28;20463;-56
2023/02/05 08:24:29;;;;;;;21.10;14.67;;;7.90;99.90;;;;;;5092955;28;20534;-57
2023/02/05 08:26:55;;;;;;;19.07;13.37;;;7.90;99.90;;;;;;5093114;28;20493;-56
2023/02/05 08:29:22;;;;;;;16.73;12.50;;;7.90;99.90;;;;;;5092999;28;20455;-56
2023/02/05 08:31:49;;;;;;;13.63;9.23;;;7.90;99.90;;;;;;5093044;28;20448;-56
2023/02/05 08:34:16;;;;;;;10.43;7.60;;;7.80;99.90;;;;;;5092892;28;20472;-56
2023/02/05 08:36:44;;;;;;;6.97;4.60;;;7.80;99.90;;;;;;5093025;28;20431;-56
2023/02/05 08:39:11;;;;;;;5.60;4.20;;;7.70;99.90;;;;;;5093001;28;20440;-57
2023/02/05 08:41:37;;;;;;;8.47;2.80;;;7.70;99.90;;;;;;5092952;28;20456;-57
2023/02/05 08:44:05;;;;;;;5.00;3.00;;;7.60;99.90;;;;;;5092745;28;20475;-57
2023/02/05 08:46:32;;;;;;;3.60;1.73;;;7.60;99.90;;;;;;5094266;28;20438;-57
2023/02/05 08:48:59;;;;;;;3.87;2.40;;;7.60;99.90;;;;;;5096203;28;20518;-57
2023/02/05 08:51:26;;;;;;;4.27;2.00;;;7.70;99.90;;;;;;5096466;28;20455;-57
2023/02/05 08:53:55;;;;;;;2.70;1.43;;;7.70;99.90;;;;;;5096276;28;20472;-57
2023/02/05 08:56:22;;;;;;;4.37;2.30;;;7.70;99.90;;;;;;5096402;28;20803;-57
2023/02/05 08:58:48;;;;;;;4.37;1.73;;;7.70;99.90;;;;;;5096335;28;20432;-57
2023/02/05 09:01:16;;;;;;;3.50;1.20;;;7.80;99.90;;;;;;5096270;28;20448;-57
2023/02/05 09:03:43;;;;;;;1.03;0.90;;;7.90;99.90;;;;;;5096178;28;20460;-57
2023/02/05 09:06:13;;;;;;;3.70;1.03;;;7.90;99.90;;;;;;5096332;28;20429;-57
2023/02/05 09:08:40;;;;;;;6.43;1.30;;;7.90;99.90;;;;;;5095648;28;20499;-58
2023/02/05 09:11:08;;;;;;;3.20;1.00;;;7.90;99.90;;;;;;5095713;28;20932;-57
2023/02/05 09:13:35;;;;;;;2.60;1.20;;;7.90;99.90;;;;;;5095623;28;20828;-58
2023/02/05 09:16:02;;;;;;;3.13;0.97;;;7.90;99.90;;;;;;5095985;28;20859;-58
2023/02/05 09:18:29;;;;;;;4.07;0.83;;;7.90;99.90;;;;;;5095794;28;20765;-57
2023/02/05 09:20:55;;;;;;;3.90;1.03;;;8.00;99.90;;;;;;5095913;28;20455;-57
2023/02/05 09:23:22;;;;;;;1.70;0.90;;;7.90;99.90;;;;;;5095473;28;20979;-58
2023/02/05 09:25:49;;;;;;;5.60;1.30;;;8.00;99.90;;;;;;5095894;28;20452;-57
2023/02/05 09:28:17;;;;;;;2.00;1.17;;;8.00;99.90;;;;;;5095711;28;20479;-57
2023/02/05 09:30:45;;;;;;;6.73;1.60;;;8.00;99.90;;;;;;5095538;28;20912;-57
2023/02/05 09:33:13;;;;;;;4.40;1.17;;;8.00;99.90;;;;;;5095660;28;20441;-57
2023/02/05 09:35:40;;;;;;;6.40;1.10;;;8.10;99.90;;;;;;5095601;28;20450;-56
2023/02/05 09:38:07;;;;;;;7.27;1.27;;;8.10;99.90;;;;;;5095619;28;20465;-56
2023/02/05 09:40:39;;;;;;;3.00;1.20;;;8.10;99.90;;;;;;5095629;28;20444;-57
2023/02/05 09:43:24;;;;;;;9.27;3.63;;;8.10;99.90;;;;;;5095666;28;20424;-57
2023/02/05 09:45:57;;;;;;;4.00;1.20;;;8.10;99.90;;;;;;5095595;28;20432;-57
2023/02/05 09:48:54;;;;;;;4.33;2.13;;;8.10;99.90;;;;;;5095458;28;20556;-57
2023/02/05 09:51:26;;;;;;;6.80;3.40;;;8.20;99.90;;;;;;5095050;28;20951;-57
2023/02/05 09:53:57;;;;;;;6.60;2.07;;;8.10;99.90;;;;;;5095204;28;20456;-57
2023/02/05 09:56:26;;;;;;;7.20;2.10;;;8.10;99.90;;;;;;5095242;28;20822;-57
2023/02/05 09:58:56;;;;;;;8.03;4.70;;;8.00;99.90;;;;;;5094816;28;20809;-57
2023/02/05 10:01:40;;;;;;;4.77;1.17;;;8.10;99.90;;;;;;5095349;28;20534;-57
2023/02/05 10:04:07;;;;;;;7.93;2.50;;;8.10;99.90;;;;;;5095229;28;20479;-57
2023/02/05 10:07:13;;;;;;;9.07;1.50;;;8.10;99.90;;;;;;5095063;28;20459;-57
2023/02/05 10:09:54;;;;;;;4.47;1.47;;;8.10;99.90;;;;;;5094730;28;20925;-57
2023/02/05 10:12:33;;;;;;;4.13;1.43;;;8.20;99.90;;;;;;5095169;28;20460;-57
2023/02/05 10:15:17;;;;;;;4.23;1.33;;;8.30;99.90;;;;;;5094905;28;20468;-57
2023/02/05 10:17:53;;;;;;;6.27;1.73;;;8.30;99.90;;;;;;5094765;28;20479;-57
2023/02/05 10:20:42;;;;;;;8.73;2.07;;;8.30;99.90;;;;;;5094912;28;20436;-57
2023/02/05 10:23:15;;;;;;;5.90;1.37;;;8.30;99.90;;;;;;5094841;28;20438;-57
2023/02/05 10:26:04;;;;;;;6.63;1.30;;;8.40;99.90;;;;;;5094879;28;20444;-57
2023/02/05 10:29:08;;;;;;;7.20;1.67;;;8.40;99.90;;;;;;5095142;28;20478;-57
2023/02/05 10:31:42;;;;;;;5.50;1.30;;;8.40;99.90;;;;;;5062738;28;20529;-57
2023/02/05 10:34:19;;;;;;;2.90;1.30;;;8.30;99.90;;;;;;5094838;28;20468;-56
2023/02/05 10:36:49;;;;;;;11.33;1.30;;;8.30;99.90;;;;;;5094773;28;20782;-57
2023/02/05 10:39:19;;;;;;;7.83;2.10;;;8.20;99.90;;;;;;5094594;28;20443;-57
2023/02/05 10:41:50;;;;;;;8.10;1.80;;;8.20;99.90;;;;;;5094295;28;20961;-57
2023/02/05 10:44:25;;;;;;;8.17;2.03;;;8.10;99.90;;;;;;5094299;28;21052;-57
2023/02/05 10:47:02;;;;;;;8.07;2.57;;;8.10;99.90;;;;;;5094672;28;20801;-58
2023/02/05 10:49:40;;;;;;;12.23;3.03;;;8.10;99.90;;;;;;5094624;28;20464;-57
2023/02/05 10:52:10;;;;;;;6.20;2.40;;;8.00;99.90;;;;;;5094630;28;20438;-57
2023/02/05 10:54:37;;;;;;;8.50;2.17;;;8.00;99.90;;;;;;5095018;28;20478;-57
2023/02/05 10:57:04;;;;;;;10.43;2.17;;;8.10;99.90;;;;;;5094953;28;20432;-56
2023/02/05 10:59:33;;;;;;;12.83;2.53;;;8.20;99.90;;;;;;5094512;28;20444;-56
2023/02/05 11:02:05;;;;;;;8.40;2.20;;;8.10;99.90;;;;;;5095037;28;20467;-57
2023/02/05 11:04:38;;;;;;;9.77;2.47;;;8.10;99.90;;;;;;5094910;28;20475;-57
2023/02/05 11:07:11;;;;;;;6.93;2.93;;;8.00;99.90;;;;;;5094941;28;20424;-56
2023/02/05 11:09:38;;;;;;;17.23;2.73;;;8.00;99.90;;;;;;5093615;28;20549;-56
2023/02/05 11:12:16;;;;;;;12.30;2.30;;;8.00;99.90;;;;;;5094599;28;20451;-56
2023/02/05 11:14:47;;;;;;;11.70;2.13;;;8.10;99.90;;;;;;5094768;28;21033;-57
2023/02/05 11:17:23;;;;;;;10.37;3.10;;;8.10;99.90;;;;;;5095646;28;20436;-57
2023/02/05 11:19:54;;;;;;;12.40;2.20;;;8.20;99.90;;;;;;5096086;28;20477;-56
2023/02/05 11:22:26;;;;;;;16.57;2.50;;;8.20;99.90;;;;;;5094532;28;20458;-57
2023/02/05 11:25:06;;;;;;;10.90;2.87;;;8.20;99.90;;;;;;5093799;28;21062;-57
2023/02/05 11:27:33;;;;;;;11.90;3.73;;;8.20;99.90;;;;;;5094328;28;20432;-57
2023/02/05 11:30:18;;;;;;;12.10;3.00;;;8.20;99.90;;;;;;5099096;28;20492;-57
2023/02/05 11:32:46;;;;;;;9.60;3.17;;;8.10;99.90;;;;;;5097110;28;20915;-58
2023/02/05 11:35:19;;;;;;;14.83;2.57;;;8.10;99.90;;;;;;5094226;28;20478;-58
2023/02/05 11:37:49;;;;;;;10.67;2.70;;;8.20;99.90;;;;;;5093808;28;20432;-58
2023/02/05 11:40:21;;;;;;;16.93;2.97;;;8.20;99.90;;;;;;5093573;28;20439;-58
2023/02/05 11:42:55;;;;;;;14.90;4.00;;;8.30;99.90;;;;;;5093240;28;20771;-58
2023/02/05 11:45:24;;;;;;;17.67;3.03;;;8.30;99.90;;;;;;5093417;28;20459;-58
2023/02/05 11:47:52;;;;;;;16.30;2.57;;;8.40;99.90;;;;;;5093133;28;20923;-58
2023/02/05 11:50:23;;;;;;;11.00;2.60;;;8.40;99.90;;;;;;5093036;28;21007;-58
2023/02/05 11:52:51;;;;;;;11.87;3.00;;;8.40;99.90;;;;;;5093044;28;20424;-58
2023/02/05 11:55:28;;;;;;;15.20;3.40;;;8.50;99.90;;;;;;5093295;28;20459;-58
2023/02/05 11:57:59;;;;;;;10.17;3.03;;;8.40;99.90;;;;;;5093352;28;20443;-57
2023/02/05 12:00:27;;;;;;;16.63;4.03;;;8.50;99.90;;;;;;5093376;28;20441;-57
2023/02/05 12:03:15;;;;;;;10.00;3.40;;;8.40;99.90;;;;;;5093281;28;20435;-57
2023/02/05 12:05:47;;;;;;;10.33;2.50;;;8.50;99.90;;;;;;5092959;28;20443;-57
2023/02/05 12:08:26;;;;;;;11.27;2.53;;;8.50;99.90;;;;;;5093297;28;20432;-57
2023/02/05 12:11:02;;;;;;;12.70;2.67;;;8.40;99.90;;;;;;5092978;28;20938;-57
2023/02/05 12:13:44;;;;;;;12.73;3.30;;;8.40;99.90;;;;;;5093093;28;20496;-57
2023/02/05 12:16:23;;;;;;;12.17;2.80;;;8.30;99.90;;;;;;5093190;28;20447;-57
2023/02/05 12:19:00;;;;;;;17.97;2.80;;;8.20;99.90;;;;;;5093296;28;20424;-58
2023/02/05 12:21:36;;;;;;;11.80;2.50;;;8.20;99.90;;;;;;5095622;28;20441;-57
2023/02/05 12:24:23;;;;;;;24.13;2.93;;;8.10;99.90;;;;;;5096990;28;20922;-57
2023/02/05 12:26:57;;;;;;;13.93;2.53;;;8.10;99.90;;;;;;5097245;28;20436;-58
2023/02/05 12:29:44;;;;;;;13.53;2.63;;;8.10;99.90;;;;;;5096877;28;20471;-57
2023/02/05 12:32:26;;;;;;;12.40;3.23;;;8.10;99.90;;;;;;5097027;28;20432;-58
2023/02/05 12:35:05;;;;;;;17.43;4.37;;;8.20;99.90;;;;;;5097010;28;20471;-58
2023/02/05 12:37:41;;;;;;;11.43;4.97;;;8.20;99.90;;;;;;5096739;28;20442;-58
2023/02/05 12:40:20;;;;;;;26.27;6.07;;;8.20;99.90;;;;;;5096375;28;20436;-57
2023/02/05 12:42:54;;;;;;;19.20;7.17;;;8.20;99.90;;;;;;5096643;28;20432;-57
2023/02/05 12:45:38;;;;;;;13.17;5.17;;;8.20;99.90;;;;;;5096488;28;20459;-58
2023/02/05 12:48:17;;;;;;;13.23;5.63;;;8.30;99.90;;;;;;5096586;28;20451;-58
2023/02/05 12:50:56;;;;;;;19.80;5.63;;;8.30;99.90;;;;;;5096237;28;20908;-58
2023/02/05 12:53:50;;;;;;;14.07;5.27;;;8.40;99.90;;;;;;5096397;28;20474;-58
2023/02/05 12:56:31;;;;;;;10.10;3.13;;;8.40;99.90;;;;;;5096137;28;20897;-58
2023/02/05 12:59:01;;;;;;;6.00;2.90;;;8.40;99.90;;;;;;5096363;28;20435;-58
2023/02/05 13:01:37;;;;;;;8.57;3.27;;;8.40;99.90;;;;;;5096441;28;20455;-58
2023/02/05 13:04:06;;;;;;;5.43;2.20;;;8.40;99.90;;;;;;5096367;28;20545;-58